Time;durP1;ratioP1;P1;durP2;ratioP2;P2;SDS_P1;SDS_P2;PMS_P1;PMS_P2;Temp;Humidity;BMP_temperature;BMP_pressure;BME280_temperature;BME280_humidity;BME280_pressure;Samples;Min_cycle;Max_cycle;Signal;HPM_P1;HPM_P2
2021/04/08 00:01:10;;;;;;;4.87;3.73;;;;;;;2.54;100.00;97188.53;4994495;28;20239;-89
2021/04/08 00:03:37;;;;;;;4.93;4.07;;;;;;;2.32;100.00;97208.81;4994258;28;20290;-89
2021/04/08 00:06:04;;;;;;;4.57;4.17;;;;;;;2.25;100.00;97223.91;4993732;28;20283;-89
2021/04/08 00:08:31;;;;;;;4.97;4.07;;;;;;;1.99;100.00;97237.44;4994265;28;20206;-89
2021/04/08 00:10:58;;;;;;;3.40;3.10;;;;;;;1.98;100.00;97267.72;4994231;28;20239;-89
2021/04/08 00:13:25;;;;;;;4.23;3.83;;;;;;;2.12;100.00;97285.97;4994017;28;20228;-89
2021/04/08 00:15:52;;;;;;;4.93;4.33;;;;;;;2.31;100.00;97313.50;4994489;28;20264;-90
2021/04/08 00:18:19;;;;;;;4.60;4.03;;;;;;;1.85;100.00;97323.72;4994078;28;20291;-89
2021/04/08 00:20:46;;;;;;;5.13;4.13;;;;;;;1.97;100.00;97346.41;4994089;28;20202;-90
2021/04/08 00:23:13;;;;;;;6.10;4.30;;;;;;;2.20;100.00;97380.69;4994278;28;20200;-89
2021/04/08 00:25:40;;;;;;;4.63;4.10;;;;;;;2.15;100.00;97391.31;4994002;28;20288;-89
2021/04/08 00:28:07;;;;;;;5.80;4.07;;;;;;;2.27;100.00;97392.41;4994113;28;20565;-89
2021/04/08 00:30:42;;;;;;;6.87;4.27;;;;;;;2.41;100.00;97413.28;4993991;28;20235;-88
2021/04/08 00:33:09;;;;;;;3.90;3.60;;;;;;;2.35;100.00;97405.81;4993995;28;20208;-88
2021/04/08 00:35:36;;;;;;;4.27;3.90;;;;;;;2.32;100.00;97406.84;4994059;28;20290;-89
2021/04/08 00:38:03;;;;;;;4.50;3.60;;;;;;;2.27;100.00;97416.59;4993720;28;20192;-89
2021/04/08 00:40:30;;;;;;;4.47;4.07;;;;;;;2.07;100.00;97404.66;4993696;28;20257;-89
2021/04/08 00:42:58;;;;;;;5.10;3.93;;;;;;;2.09;100.00;97396.81;4993809;28;20670;-88
2021/04/08 00:45:25;;;;;;;4.33;3.90;;;;;;;2.09;100.00;97402.00;4993693;28;20204;-88
2021/04/08 00:47:52;;;;;;;4.30;4.00;;;;;;;1.93;100.00;97395.91;4993524;28;20279;-89
2021/04/08 00:50:19;;;;;;;4.47;4.07;;;;;;;1.96;100.00;97406.97;4993660;28;20742;-89
2021/04/08 00:52:51;;;;;;;4.50;3.97;;;;;;;2.17;100.00;97415.41;4993368;28;20318;-89
2021/04/08 00:55:19;;;;;;;4.50;4.10;;;;;;;1.98;100.00;97399.13;4993765;28;20188;-89
2021/04/08 00:57:47;;;;;;;7.00;4.77;;;;;;;2.20;100.00;97404.03;4993510;28;20673;-89
2021/04/08 01:00:16;;;;;;;6.30;4.80;;;;;;;2.43;100.00;97403.69;4993493;28;20243;-89
2021/04/08 01:02:43;;;;;;;5.03;4.00;;;;;;;2.55;100.00;97403.03;4993850;28;20618;-88
2021/04/08 01:05:11;;;;;;;4.03;3.73;;;;;;;2.67;100.00;97421.44;4993853;28;20570;-88
2021/04/08 01:07:39;;;;;;;5.33;4.13;;;;;;;2.51;100.00;97411.91;4993599;28;20635;-89
2021/04/08 01:10:07;;;;;;;4.53;4.13;;;;;;;2.51;100.00;97393.72;4993644;28;20625;-88
2021/04/08 01:12:34;;;;;;;5.07;4.57;;;;;;;2.42;100.00;97370.00;4993239;28;20232;-88
2021/04/08 01:15:02;;;;;;;5.97;4.23;;;;;;;2.37;100.00;97360.72;4993603;28;20204;-88
2021/04/08 01:17:38;;;;;;;4.57;3.90;;;;;;;2.31;100.00;97347.25;4995849;28;20206;-88
2021/04/08 01:20:44;;;;;;;4.80;4.20;;;;;;;2.28;100.00;97326.63;4997266;28;20200;-88
2021/04/08 01:23:32;;;;;;;4.60;3.93;;;;;;;2.38;100.00;97279.38;4997234;28;20184;-88
2021/04/08 01:26:32;;;;;;;4.10;3.70;;;;;;;2.31;100.00;97222.72;4997188;28;20233;-88
2021/04/08 01:29:08;;;;;;;4.73;4.10;;;;;;;2.33;100.00;97172.44;4996831;28;20231;-88
2021/04/08 01:31:37;;;;;;;3.97;3.67;;;;;;;2.33;100.00;97143.91;4997043;28;20704;-88
2021/04/08 01:34:09;;;;;;;4.17;3.77;;;;;;;2.47;100.00;97124.94;4997247;28;20203;-87
2021/04/08 01:36:37;;;;;;;4.20;3.67;;;;;;;2.39;100.00;97106.41;5016801;28;20244;-88
2021/04/08 01:39:06;;;;;;;3.70;3.40;;;;;;;2.18;100.00;97073.88;5016650;28;20583;-87
2021/04/08 01:41:37;;;;;;;4.10;3.70;;;;;;;2.05;100.00;97061.63;5016793;28;20196;-87
2021/04/08 01:44:06;;;;;;;4.20;3.87;;;;;;;2.28;100.00;97030.94;5016456;28;20274;-87
2021/04/08 01:46:38;;;;;;;6.83;4.30;;;;;;;2.44;100.00;97021.34;5016307;28;20253;-87
2021/04/08 01:49:06;;;;;;;4.90;4.50;;;;;;;2.13;100.00;97007.56;5016170;28;20226;-87
2021/04/08 01:51:35;;;;;;;4.47;4.07;;;;;;;2.17;100.00;97002.19;5016550;28;20221;-87
2021/04/08 01:54:03;;;;;;;4.60;4.20;;;;;;;2.11;100.00;96988.66;5016213;28;20196;-88
2021/04/08 01:56:33;;;;;;;4.90;4.40;;;;;;;2.21;100.00;96991.53;5016550;28;20230;-88
2021/04/08 01:59:01;;;;;;;4.30;4.00;;;;;;;2.06;100.00;96982.91;5016720;28;20250;-87
2021/04/08 02:01:29;;;;;;;5.20;4.80;;;;;;;2.18;100.00;96970.13;5016364;28;20298;-88
2021/04/08 02:03:57;;;;;;;6.27;5.43;;;;;;;2.37;100.00;96963.78;5016099;28;20756;-87
2021/04/08 02:06:27;;;;;;;6.30;4.77;;;;;;;2.24;100.00;96954.22;5015982;28;20239;-88
2021/04/08 02:08:54;;;;;;;6.33;4.53;;;;;;;2.30;100.00;96939.13;5016142;28;20195;-88
2021/04/08 02:11:22;;;;;;;5.70;5.10;;;;;;;2.45;100.00;96934.78;5015819;28;20245;-87
2021/04/08 02:13:50;;;;;;;5.17;4.67;;;;;;;2.38;100.00;96938.66;5015741;28;20207;-88
2021/04/08 02:16:19;;;;;;;5.43;4.93;;;;;;;2.36;100.00;96931.00;5015952;28;20284;-87
2021/04/08 02:18:48;;;;;;;5.80;5.10;;;;;;;2.32;100.00;96929.50;5015829;28;20192;-87
2021/04/08 02:21:19;;;;;;;5.40;4.90;;;;;;;2.26;100.00;96924.69;5015621;28;20203;-87
2021/04/08 02:23:47;;;;;;;5.73;5.23;;;;;;;2.22;100.00;96922.34;5015503;28;20202;-87
2021/04/08 02:26:17;;;;;;;6.97;6.27;;;;;;;2.22;100.00;96904.19;5015879;28;20199;-87
2021/04/08 02:28:46;;;;;;;6.37;5.60;;;;;;;2.28;100.00;96903.81;5014121;28;20192;-86
2021/04/08 02:31:13;;;;;;;5.17;4.77;;;;;;;1.86;100.00;96903.69;5015478;28;20219;-83
2021/04/08 02:33:41;;;;;;;5.40;4.63;;;;;;;2.00;100.00;96907.22;5014482;28;20219;-84
2021/04/08 02:36:08;;;;;;;5.67;4.83;;;;;;;2.26;100.00;96903.09;5015139;28;20253;-84
2021/04/08 02:38:37;;;;;;;5.37;4.93;;;;;;;2.40;100.00;96905.69;5014868;28;20217;-86
2021/04/08 02:41:06;;;;;;;6.57;5.43;;;;;;;2.36;100.00;96891.25;5014930;28;20252;-86
2021/04/08 02:43:33;;;;;;;5.00;4.53;;;;;;;2.41;100.00;96881.41;5014932;28;20717;-87
2021/04/08 02:46:00;;;;;;;5.00;4.53;;;;;;;2.32;100.00;96885.41;5015014;28;20210;-86
2021/04/08 02:48:28;;;;;;;5.20;4.70;;;;;;;2.36;100.00;96880.88;5014987;28;20239;-87
2021/04/08 02:50:59;;;;;;;5.37;4.47;;;;;;;2.28;100.00;96880.50;5014933;28;20250;-87
2021/04/08 02:53:32;;;;;;;6.43;4.77;;;;;;;2.13;100.00;96888.25;5014959;28;20250;-87
2021/04/08 02:56:06;;;;;;;5.83;4.90;;;;;;;2.34;100.00;96880.13;5015081;28;20198;-87
2021/04/08 02:58:36;;;;;;;5.53;5.10;;;;;;;2.36;100.00;96880.88;5014837;28;20668;-87
2021/04/08 03:01:09;;;;;;;5.17;4.77;;;;;;;2.45;100.00;96876.88;5014803;28;20223;-86
2021/04/08 03:03:40;;;;;;;5.57;4.83;;;;;;;2.32;100.00;96876.78;5012695;28;20596;-86
2021/04/08 03:06:10;;;;;;;6.93;4.87;;;;;;;2.33;100.00;96866.31;5014041;28;20202;-85
2021/04/08 03:08:41;;;;;;;5.67;5.03;;;;;;;2.56;100.00;96870.13;5014502;28;20354;-86
2021/04/08 03:11:12;;;;;;;5.30;4.87;;;;;;;2.39;100.00;96878.09;5020179;28;20187;-86
2021/04/08 03:13:43;;;;;;;9.37;7.77;;;;;;;2.31;100.00;96880.31;5018013;28;20227;-87
2021/04/08 03:16:17;;;;;;;6.33;5.70;;;;;;;2.49;100.00;96874.00;5014591;28;20278;-87
2021/04/08 03:18:47;;;;;;;6.20;4.30;;;;;;;2.50;100.00;96883.47;5014539;28;20230;-87
2021/04/08 03:21:15;;;;;;;4.47;4.07;;;;;;;2.44;100.00;96885.59;5014608;28;20282;-87
2021/04/08 03:23:43;;;;;;;5.53;4.67;;;;;;;2.58;100.00;96888.19;5014729;28;20238;-87
2021/04/08 03:26:12;;;;;;;4.83;4.33;;;;;;;2.59;100.00;96884.66;5013690;28;20286;-86
2021/04/08 03:28:40;;;;;;;5.30;4.80;;;;;;;2.46;100.00;96894.97;5013888;28;20286;-87
2021/04/08 03:31:08;;;;;;;6.33;4.57;;;;;;;2.65;100.00;96888.63;5013720;28;20237;-87
2021/04/08 03:33:36;;;;;;;4.77;4.37;;;;;;;2.52;100.00;96904.13;5014030;28;20259;-87
2021/04/08 03:36:04;;;;;;;4.53;3.83;;;;;;;2.46;100.00;96897.56;5014332;28;20253;-87
2021/04/08 03:38:31;;;;;;;5.10;4.40;;;;;;;2.60;100.00;96904.50;5014176;28;20218;-86
2021/04/08 03:40:59;;;;;;;5.00;4.60;;;;;;;2.57;100.00;96896.91;5013438;28;20215;-87
2021/04/08 03:43:27;;;;;;;4.73;4.23;;;;;;;2.61;100.00;96907.00;5013925;28;20286;-86
2021/04/08 03:45:58;;;;;;;4.63;4.23;;;;;;;2.38;100.00;96898.00;5014216;28;20661;-85
2021/04/08 03:48:28;;;;;;;5.20;4.10;;;;;;;2.36;100.00;96899.03;5013833;28;20184;-87
2021/04/08 03:50:56;;;;;;;5.20;4.70;;;;;;;2.44;100.00;96902.00;5013758;28;20199;-86
2021/04/08 03:53:23;;;;;;;5.13;4.67;;;;;;;2.51;100.00;96908.47;5013359;28;20310;-87
2021/04/08 03:55:50;;;;;;;4.57;4.13;;;;;;;2.60;100.00;96912.28;5013826;28;20238;-86
2021/04/08 03:58:18;;;;;;;4.60;4.20;;;;;;;2.54;100.00;96917.84;5013683;28;20279;-87
2021/04/08 04:00:46;;;;;;;4.87;4.47;;;;;;;2.53;100.00;96909.22;5014309;28;20195;-88
2021/04/08 04:03:16;;;;;;;4.47;4.07;;;;;;;2.65;100.00;96915.41;5014130;28;20227;-87
2021/04/08 04:05:45;;;;;;;4.50;4.10;;;;;;;2.62;100.00;96918.19;5013373;28;20199;-87
2021/04/08 04:08:13;;;;;;;5.80;4.90;;;;;;;2.59;100.00;96916.63;5013705;28;20200;-87
2021/04/08 04:10:41;;;;;;;5.63;4.63;;;;;;;2.82;100.00;96923.00;5013567;28;20664;-88
2021/04/08 04:13:13;;;;;;;7.13;4.80;;;;;;;2.84;100.00;96933.28;5013933;28;20613;-88
2021/04/08 04:15:45;;;;;;;9.90;4.27;;;;;;;2.81;100.00;96943.88;5013865;28;20278;-88
2021/04/08 04:18:17;;;;;;;17.80;11.50;;;;;;;2.68;100.00;96955.94;5013481;28;20271;-88
2021/04/08 04:20:45;;;;;;;7.30;6.50;;;;;;;2.41;100.00;96963.59;5013359;28;20184;-88
2021/04/08 04:23:15;;;;;;;5.57;4.97;;;;;;;2.27;100.00;96978.22;5013428;28;20279;-89
2021/04/08 04:25:41;;;;;;;4.17;3.80;;;;;;;2.24;100.00;96983.59;5013484;28;20234;-88
2021/04/08 04:28:08;;;;;;;4.57;4.00;;;;;;;2.28;100.00;96989.44;5013454;28;20239;-88
2021/04/08 04:30:35;;;;;;;4.80;4.30;;;;;;;2.15;100.00;96994.50;5013127;28;20278;-89
2021/04/08 04:33:02;;;;;;;4.70;4.30;;;;;;;2.33;100.00;96998.63;5013642;28;20309;-88
2021/04/08 04:35:30;;;;;;;5.43;4.93;;;;;;;2.51;100.00;96998.47;5013493;28;20203;-88
2021/04/08 04:37:57;;;;;;;12.00;8.80;;;;;;;2.54;100.00;97000.88;5013790;28;20806;-86
2021/04/08 04:40:24;;;;;;;6.33;5.23;;;;;;;2.49;100.00;97008.91;5013664;28;20272;-87
2021/04/08 04:42:51;;;;;;;6.30;5.57;;;;;;;2.15;100.00;96999.69;5013368;28;20196;-86
2021/04/08 04:45:18;;;;;;;6.30;5.60;;;;;;;2.41;100.00;97000.75;5013124;28;20210;-87
2021/04/08 04:47:45;;;;;;;7.20;5.10;;;;;;;2.16;100.00;97008.31;5013012;28;20195;-86
2021/04/08 04:50:14;;;;;;;5.00;4.47;;;;;;;2.14;100.00;97017.00;5013198;28;20294;-87
2021/04/08 04:52:42;;;;;;;5.80;5.20;;;;;;;2.15;100.00;97020.44;5012625;28;20231;-87
2021/04/08 04:55:11;;;;;;;4.83;4.33;;;;;;;2.04;100.00;97018.44;5013210;28;20215;-87
2021/04/08 04:57:38;;;;;;;4.60;4.20;;;;;;;2.34;100.00;97005.47;5013175;28;20263;-87
2021/04/08 05:00:06;;;;;;;5.33;4.53;;;;;;;2.52;100.00;97018.28;4999557;28;20224;-87
2021/04/08 05:02:33;;;;;;;4.53;4.13;;;;;;;2.52;100.00;97015.69;4993499;28;20243;-87
2021/04/08 05:05:00;;;;;;;7.40;4.50;;;;;;;2.65;100.00;97005.44;4993856;28;20206;-87
2021/04/08 05:07:27;;;;;;;4.87;4.47;;;;;;;2.28;100.00;97010.19;4994035;28;20197;-87
2021/04/08 05:09:54;;;;;;;6.10;5.50;;;;;;;2.40;100.00;96999.09;4993549;28;20200;-87
2021/04/08 05:12:21;;;;;;;5.23;4.73;;;;;;;2.45;100.00;96991.84;4993520;28;20277;-87
2021/04/08 05:14:48;;;;;;;5.03;4.63;;;;;;;2.38;100.00;97003.53;4993366;28;20231;-87
2021/04/08 05:17:15;;;;;;;7.53;4.93;;;;;;;2.48;100.00;97009.84;4993391;28;20211;-87
2021/04/08 05:19:42;;;;;;;4.70;4.30;;;;;;;2.39;100.00;97015.59;4993579;28;20232;-87
2021/04/08 05:22:09;;;;;;;6.13;5.20;;;;;;;2.22;100.00;97008.78;4993324;28;20677;-88
2021/04/08 05:24:35;;;;;;;7.07;4.57;;;;;;;2.30;100.00;97003.97;4993341;28;20236;-87
2021/04/08 05:27:03;;;;;;;5.40;4.23;;;;;;;2.48;100.00;96996.03;4993645;28;20279;-88
2021/04/08 05:29:30;;;;;;;6.10;4.53;;;;;;;2.45;100.00;97007.44;4993009;28;20232;-87
2021/04/08 05:31:57;;;;;;;4.47;4.07;;;;;;;2.48;100.00;97009.00;4993491;28;20592;-87
2021/04/08 05:34:24;;;;;;;5.33;4.70;;;;;;;2.57;100.00;97006.72;4993472;28;20694;-87
2021/04/08 05:36:51;;;;;;;4.40;4.00;;;;;;;2.60;100.00;97000.53;4993403;28;20196;-87
2021/04/08 05:39:18;;;;;;;6.43;5.30;;;;;;;2.57;100.00;97003.28;4993636;28;20684;-87
2021/04/08 05:41:45;;;;;;;53.87;33.47;;;;;;;2.64;100.00;97002.00;5012356;28;20243;-87
2021/04/08 05:44:13;;;;;;;145.17;74.27;;;;;;;2.78;100.00;97006.38;5010845;28;20207;-87
2021/04/08 05:46:40;;;;;;;71.20;45.93;;;;;;;2.65;100.00;97008.03;5012564;28;20200;-87
2021/04/08 05:49:07;;;;;;;11.17;8.83;;;;;;;2.70;100.00;97011.16;5012645;28;20253;-87
2021/04/08 05:51:33;;;;;;;5.33;4.83;;;;;;;2.36;100.00;97015.78;5013001;28;20254;-87
2021/04/08 05:54:01;;;;;;;6.83;6.13;;;;;;;2.35;100.00;97017.50;5012763;28;20223;-87
2021/04/08 05:56:28;;;;;;;6.07;5.43;;;;;;;2.58;100.00;97007.53;5012940;28;20207;-86
2021/04/08 05:58:54;;;;;;;5.63;5.13;;;;;;;2.54;100.00;97013.84;5012511;28;20258;-87
2021/04/08 06:01:22;;;;;;;5.13;4.33;;;;;;;2.28;100.00;97016.19;5012751;28;20235;-87
2021/04/08 06:03:49;;;;;;;6.07;5.00;;;;;;;2.43;100.00;97022.28;5015503;28;20200;-87
2021/04/08 06:06:16;;;;;;;5.40;4.90;;;;;;;2.67;100.00;97022.59;5016236;28;20341;-87
2021/04/08 06:08:43;;;;;;;7.17;5.13;;;;;;;2.43;100.00;97029.22;4996533;28;20200;-87
2021/04/08 06:11:09;;;;;;;6.10;5.50;;;;;;;2.49;100.00;97024.47;4997167;28;20633;-87
2021/04/08 06:13:36;;;;;;;5.53;4.70;;;;;;;2.51;100.00;97030.44;4996398;28;20235;-87
2021/04/08 06:16:04;;;;;;;6.00;5.23;;;;;;;2.58;100.00;97028.31;4996707;28;20203;-87
2021/04/08 06:18:31;;;;;;;6.43;5.57;;;;;;;2.46;100.00;97018.63;4996396;28;20277;-87
2021/04/08 06:20:58;;;;;;;5.63;4.50;;;;;;;2.39;100.00;97020.78;4996667;28;20728;-87
2021/04/08 06:23:25;;;;;;;5.27;4.73;;;;;;;2.55;100.00;97020.69;4996290;28;20287;-87
2021/04/08 06:25:52;;;;;;;7.33;4.17;;;;;;;2.71;100.00;97013.69;4996288;28;20200;-86
2021/04/08 06:28:19;;;;;;;5.53;4.40;;;;;;;2.96;100.00;97020.81;4996549;28;20620;-87
2021/04/08 06:30:46;;;;;;;4.63;4.17;;;;;;;2.82;100.00;97015.63;4995337;28;20232;-86
2021/04/08 06:33:13;;;;;;;4.80;4.30;;;;;;;3.09;100.00;97023.50;4996369;28;20677;-87
2021/04/08 06:35:41;;;;;;;4.10;3.70;;;;;;;2.82;100.00;97032.03;4996064;28;20196;-87
2021/04/08 06:38:08;;;;;;;7.97;5.13;;;;;;;3.15;100.00;97035.28;4995986;28;20204;-86
2021/04/08 06:40:35;;;;;;;3.87;3.57;;;;;;;3.20;100.00;97023.69;4995987;28;20243;-86
2021/04/08 06:43:02;;;;;;;4.80;4.37;;;;;;;3.25;100.00;97023.38;4995894;28;20196;-87
2021/04/08 06:45:31;;;;;;;6.07;4.70;;;;;;;3.19;100.00;97024.63;4995916;28;20192;-87
2021/04/08 06:48:04;;;;;;;4.70;4.30;;;;;;;3.34;100.00;97023.66;4995911;28;20204;-86
2021/04/08 06:50:34;;;;;;;3.33;3.03;;;;;;;3.53;100.00;97028.56;4995805;28;20271;-87
2021/04/08 06:53:04;;;;;;;3.63;3.33;;;;;;;3.63;100.00;97025.34;4996104;28;20224;-87
2021/04/08 06:55:31;;;;;;;5.47;4.33;;;;;;;3.56;100.00;97017.09;4995695;28;20688;-88
2021/04/08 06:57:59;;;;;;;4.03;3.63;;;;;;;3.86;100.00;97035.13;4995663;28;20294;-88
2021/04/08 07:00:26;;;;;;;3.70;3.40;;;;;;;3.93;100.00;97031.19;4995745;28;20320;-88
2021/04/08 07:02:53;;;;;;;4.27;3.83;;;;;;;4.04;100.00;97033.94;4995696;28;20355;-88
2021/04/08 07:05:20;;;;;;;4.27;3.87;;;;;;;4.24;100.00;97027.44;4995543;28;20673;-88
2021/04/08 07:07:47;;;;;;;3.60;3.30;;;;;;;4.41;100.00;97033.31;4995352;28;20275;-87
2021/04/08 07:10:15;;;;;;;8.87;6.03;;;;;;;4.53;100.00;97033.31;4995677;28;20207;-87
2021/04/08 07:12:42;;;;;;;5.97;4.37;;;;;;;4.68;100.00;97022.81;4995290;28;20279;-88
2021/04/08 07:15:09;;;;;;;3.90;3.57;;;;;;;4.74;100.00;97030.19;4994994;28;20665;-87
2021/04/08 07:17:36;;;;;;;7.70;5.10;;;;;;;5.05;100.00;97031.53;4995515;28;20207;-87
2021/04/08 07:20:04;;;;;;;6.47;4.90;;;;;;;5.29;100.00;97026.41;5000872;28;20203;-86
2021/04/08 07:22:31;;;;;;;8.47;6.17;;;;;;;5.62;100.00;97030.19;5014598;28;20206;-87
2021/04/08 07:24:58;;;;;;;5.63;5.10;;;;;;;5.56;100.00;97031.44;5014986;28;20588;-87
2021/04/08 07:27:26;;;;;;;4.57;4.17;;;;;;;5.79;100.00;97035.03;5014688;28;20195;-87
2021/04/08 07:29:55;;;;;;;7.23;4.80;;;;;;;5.78;100.00;97024.69;5014604;28;20235;-88
2021/04/08 07:32:25;;;;;;;4.83;4.40;;;;;;;5.60;100.00;97032.06;5008308;28;20769;-88
2021/04/08 07:34:54;;;;;;;4.20;3.77;;;;;;;6.02;100.00;97037.78;4999860;28;20239;-87
2021/04/08 07:37:29;;;;;;;4.87;4.30;;;;;;;5.71;100.00;97042.56;4995031;28;20276;-88
2021/04/08 07:39:57;;;;;;;5.47;5.00;;;;;;;5.53;100.00;97046.47;4994710;28;20254;-88
2021/04/08 07:42:32;;;;;;;4.57;4.10;;;;;;;5.48;100.00;97049.41;4994712;28;20192;-88
2021/04/08 07:45:01;;;;;;;5.37;4.87;;;;;;;6.05;100.00;97055.81;4994779;28;20199;-88
2021/04/08 07:47:30;;;;;;;6.13;4.90;;;;;;;6.25;100.00;97060.44;4994757;28;20210;-88
2021/04/08 07:50:11;;;;;;;7.20;6.50;;;;;;;6.58;100.00;97056.25;4994928;28;20202;-88
2021/04/08 07:52:39;;;;;;;6.97;5.60;;;;;;;6.57;100.00;97062.44;4994909;28;20351;-88
2021/04/08 07:55:14;;;;;;;6.80;6.13;;;;;;;6.65;100.00;97070.53;4994685;28;20199;-88
2021/04/08 07:57:57;;;;;;;7.17;6.37;;;;;;;6.78;100.00;97068.66;4994756;28;20649;-88
2021/04/08 08:00:26;;;;;;;4.07;3.10;;;;;;;6.88;100.00;97076.66;4994643;28;20223;-88
2021/04/08 08:02:54;;;;;;;3.80;3.20;;;;;;;7.36;100.00;97073.84;4994365;28;20246;-89
2021/04/08 08:05:25;;;;;;;3.67;3.13;;;;;;;6.88;100.00;97092.31;4994650;28;20717;-88
2021/04/08 08:07:53;;;;;;;4.43;4.00;;;;;;;6.57;100.00;97080.72;4994302;28;20184;-88
2021/04/08 08:10:23;;;;;;;3.70;3.40;;;;;;;6.41;100.00;97081.88;4994252;28;20299;-88
2021/04/08 08:12:52;;;;;;;4.37;3.97;;;;;;;6.27;100.00;97094.25;4994101;28;20291;-88
2021/04/08 08:15:25;;;;;;;4.00;3.60;;;;;;;6.07;100.00;97098.31;4994157;28;20254;-88
2021/04/08 08:17:53;;;;;;;4.03;3.40;;;;;;;5.70;100.00;97106.94;4994641;28;20624;-88
2021/04/08 08:20:22;;;;;;;3.23;2.93;;;;;;;5.39;100.00;97102.19;4994069;28;20200;-88
2021/04/08 08:22:49;;;;;;;4.73;3.87;;;;;;;5.21;100.00;97102.53;4994295;28;20744;-88
2021/04/08 08:25:23;;;;;;;8.53;7.70;;;;;;;5.05;100.00;97106.28;4994035;28;20200;-88
2021/04/08 08:27:53;;;;;;;7.13;6.03;;;;;;;5.11;100.00;97108.47;4993546;28;20188;-89
2021/04/08 08:30:22;;;;;;;7.30;5.23;;;;;;;5.25;100.00;97103.97;4993713;28;20274;-88
2021/04/08 08:33:08;;;;;;;7.57;6.80;;;;;;;5.11;100.00;97117.13;4993812;28;20722;-88
2021/04/08 08:35:37;;;;;;;4.77;4.37;;;;;;;4.87;100.00;97109.16;4993933;28;20188;-88
2021/04/08 08:38:22;;;;;;;7.37;5.20;;;;;;;4.64;100.00;97102.06;4993871;28;20668;-88
2021/04/08 08:40:50;;;;;;;5.70;5.07;;;;;;;4.55;100.00;97100.06;4994203;28;20619;-88
2021/04/08 08:43:18;;;;;;;7.57;4.13;;;;;;;4.65;100.00;97104.56;4993916;28;20208;-88
2021/04/08 08:45:45;;;;;;;4.13;3.73;;;;;;;4.65;100.00;97107.19;4993635;28;20200;-88
2021/04/08 08:48:15;;;;;;;5.30;4.07;;;;;;;4.55;100.00;97113.91;4993577;28;20291;-88
2021/04/08 08:50:43;;;;;;;4.70;4.17;;;;;;;4.60;100.00;97130.06;4993858;28;20189;-88
2021/04/08 08:53:12;;;;;;;5.50;3.93;;;;;;;4.67;100.00;97133.09;4993759;28;20228;-88
2021/04/08 08:55:40;;;;;;;6.13;4.57;;;;;;;4.56;100.00;97132.97;4993882;28;20266;-88
2021/04/08 08:58:07;;;;;;;4.73;3.13;;;;;;;4.62;100.00;97137.78;4993623;28;20285;-88
2021/04/08 09:00:35;;;;;;;5.73;3.33;;;;;;;4.42;100.00;97155.53;4993556;28;20203;-88
2021/04/08 09:03:04;;;;;;;4.70;3.77;;;;;;;4.20;100.00;97157.84;4993707;28;20202;-88
2021/04/08 09:05:34;;;;;;;4.73;3.90;;;;;;;4.25;100.00;97163.56;4993740;28;20601;-88
2021/04/08 09:08:10;;;;;;;3.70;3.30;;;;;;;4.41;100.00;97161.66;4993411;28;20684;-88
2021/04/08 09:10:40;;;;;;;2.70;2.50;;;;;;;4.54;100.00;97169.53;4993398;28;20185;-88
2021/04/08 09:13:08;;;;;;;3.37;3.03;;;;;;;4.65;100.00;97181.84;4993646;28;20208;-88
2021/04/08 09:15:37;;;;;;;3.67;3.23;;;;;;;4.81;100.00;97181.69;4993451;28;20283;-88
2021/04/08 09:18:06;;;;;;;4.70;4.20;;;;;;;4.71;100.00;97171.88;4993507;28;20207;-88
2021/04/08 09:20:34;;;;;;;4.30;3.50;;;;;;;4.94;100.00;97162.53;4994414;28;20278;-89
2021/04/08 09:23:03;;;;;;;6.10;3.37;;;;;;;5.06;100.00;97162.66;4993353;28;20202;-88
2021/04/08 09:25:32;;;;;;;3.40;3.10;;;;;;;4.83;100.00;97166.78;4993590;28;20561;-88
2021/04/08 09:28:02;;;;;;;5.80;5.23;;;;;;;4.84;100.00;97169.28;4993331;28;20200;-89
2021/04/08 09:30:48;;;;;;;4.30;3.90;;;;;;;4.86;100.00;97177.00;4993176;28;20227;-89
2021/04/08 09:33:15;;;;;;;5.93;4.83;;;;;;;5.03;100.00;97188.94;4993229;28;20204;-89
2021/04/08 09:35:44;;;;;;;4.57;4.17;;;;;;;4.88;100.00;97181.16;4993177;28;20744;-89
2021/04/08 09:38:14;;;;;;;5.83;4.80;;;;;;;4.77;100.00;97194.06;4995514;28;20199;-89
2021/04/08 09:40:49;;;;;;;5.67;4.27;;;;;;;4.78;100.00;97190.53;4997151;28;20185;-89
2021/04/08 09:43:18;;;;;;;3.57;3.27;;;;;;;5.04;100.00;97196.63;4997303;28;20235;-88
2021/04/08 09:45:50;;;;;;;4.17;3.77;;;;;;;5.21;100.00;97190.31;4997220;28;20661;-89
2021/04/08 09:48:20;;;;;;;7.90;7.17;;;;;;;5.27;100.00;97202.09;4997224;28;20193;-88
2021/04/08 09:50:49;;;;;;;5.37;4.67;;;;;;;5.40;100.00;97197.69;4996953;28;20227;-88
2021/04/08 09:53:17;;;;;;;4.60;4.17;;;;;;;5.31;100.00;97188.75;4997157;28;20302;-88
2021/04/08 09:55:51;;;;;;;4.90;4.40;;;;;;;5.12;100.00;97190.91;4996871;28;20685;-88
2021/04/08 09:58:21;;;;;;;4.30;3.60;;;;;;;5.41;100.00;97189.78;4996962;28;20279;-89
2021/04/08 10:00:50;;;;;;;4.63;4.07;;;;;;;5.43;100.00;97184.47;4997328;28;20196;-89
2021/04/08 10:03:28;;;;;;;5.77;5.20;;;;;;;5.38;100.00;97174.34;4996866;28;20254;-88
2021/04/08 10:05:56;;;;;;;5.53;4.83;;;;;;;5.53;100.00;97177.69;4996665;28;20184;-89
2021/04/08 10:08:23;;;;;;;5.37;3.73;;;;;;;5.36;100.00;97183.22;4996609;28;20201;-89
2021/04/08 10:10:51;;;;;;;3.50;3.20;;;;;;;5.67;100.00;97180.19;4996707;28;20226;-89
2021/04/08 10:13:21;;;;;;;6.87;5.87;;;;;;;5.79;100.00;97178.50;4996990;28;20671;-88
2021/04/08 10:15:52;;;;;;;5.40;3.80;;;;;;;5.83;100.00;97176.53;4996684;28;20204;-88
2021/04/08 10:18:21;;;;;;;5.57;4.80;;;;;;;5.85;100.00;97172.00;4996641;28;20204;-89
2021/04/08 10:20:50;;;;;;;5.10;4.60;;;;;;;6.17;100.00;97167.19;4996413;28;20199;-89
2021/04/08 10:23:34;;;;;;;6.13;5.33;;;;;;;6.42;100.00;97171.47;4996331;28;20196;-89
2021/04/08 10:26:02;;;;;;;4.73;4.30;;;;;;;6.07;100.00;97160.94;4996272;28;20196;-89
2021/04/08 10:28:38;;;;;;;4.07;3.73;;;;;;;6.13;100.00;97161.34;4996385;28;20201;-89
2021/04/08 10:31:20;;;;;;;5.30;3.50;;;;;;;5.87;100.00;97164.91;4995997;28;20319;-89
2021/04/08 10:33:48;;;;;;;6.30;3.70;;;;;;;6.07;100.00;97161.78;4996289;28;20223;-89
2021/04/08 10:36:27;;;;;;;4.53;3.67;;;;;;;6.15;100.00;97151.63;4996142;28;20275;-88
2021/04/08 10:39:09;;;;;;;5.37;3.93;;;;;;;6.19;100.00;97168.72;4996261;28;20189;-89
2021/04/08 10:41:37;;;;;;;4.27;3.87;;;;;;;6.35;100.00;97170.25;4996369;28;20271;-89
2021/04/08 10:44:20;;;;;;;4.33;3.43;;;;;;;6.37;100.00;97176.19;4995993;28;20203;-89
2021/04/08 10:46:49;;;;;;;4.77;4.37;;;;;;;6.47;100.00;97186.81;4996007;28;20231;-89
2021/04/08 10:49:23;;;;;;;5.50;3.47;;;;;;;6.44;100.00;97177.41;4994876;28;20235;-89
2021/04/08 10:51:50;;;;;;;4.33;3.50;;;;;;;6.62;100.00;97177.88;4995885;28;20274;-89
2021/04/08 10:54:17;;;;;;;3.50;3.17;;;;;;;6.40;100.00;97182.00;4996131;28;20224;-90
2021/04/08 10:56:48;;;;;;;4.10;3.80;;;;;;;6.45;100.00;97176.47;4995825;28;20255;-89
2021/04/08 10:59:16;;;;;;;4.27;3.87;;;;;;;7.01;100.00;97178.50;4995656;28;20642;-90
2021/04/08 11:01:43;;;;;;;6.40;3.57;;;;;;;6.59;100.00;97178.09;4996023;28;20204;-89
2021/04/08 11:04:11;;;;;;;5.03;3.97;;;;;;;6.84;100.00;97188.41;4995609;28;20196;-89
2021/04/08 11:06:38;;;;;;;4.43;3.27;;;;;;;7.01;100.00;97186.34;4995844;28;20286;-89
2021/04/08 11:09:06;;;;;;;5.90;4.27;;;;;;;6.83;100.00;97198.97;4995715;28;20291;-89
2021/04/08 11:11:33;;;;;;;4.23;3.83;;;;;;;7.15;100.00;97188.75;4995439;28;20243;-90
2021/04/08 11:13:59;;;;;;;2.90;2.53;;;;;;;7.33;100.00;97184.75;4995402;28;20713;-89
2021/04/08 11:16:28;;;;;;;3.40;3.10;;;;;;;7.33;100.00;97169.06;4995398;28;20197;-89
2021/04/08 11:18:58;;;;;;;3.63;3.33;;;;;;;7.02;100.00;97160.06;4995367;28;20200;-89
2021/04/08 11:21:27;;;;;;;3.53;3.23;;;;;;;6.88;100.00;97150.66;4995354;28;20215;-89
2021/04/08 11:23:55;;;;;;;5.67;3.03;;;;;;;7.05;100.00;97149.38;4995281;28;20197;-89
2021/04/08 11:26:22;;;;;;;3.33;3.03;;;;;;;7.36;100.00;97154.91;4995531;28;20197;-89
2021/04/08 11:28:54;;;;;;;4.27;3.63;;;;;;;7.36;100.00;97157.53;4994988;28;20246;-88
2021/04/08 11:31:22;;;;;;;2.73;2.53;;;;;;;7.03;100.00;97167.00;4995121;28;20223;-89
2021/04/08 11:33:56;;;;;;;5.00;4.43;;;;;;;7.55;100.00;97176.13;4995549;28;20615;-89
2021/04/08 11:36:23;;;;;;;2.67;2.47;;;;;;;7.52;100.00;97163.28;4995557;28;20204;-90
2021/04/08 11:38:52;;;;;;;5.20;4.63;;;;;;;7.69;100.00;97155.88;4995019;28;20202;-89
2021/04/08 11:41:19;;;;;;;2.93;2.63;;;;;;;7.44;100.00;97136.84;4997294;28;20299;-89
2021/04/08 11:43:49;;;;;;;9.43;6.27;;;;;;;7.66;100.00;97153.53;5009712;28;20239;-89